Latest Weather Observations for Yunta

IDS60801

Issued at 8:31 pm CDT Sunday 24 January 2021 (issued every 10 minutes, with the page automatically refreshed every 10 minutes)

About weather observations | Map of weather stations | Latest weather observations for SA | Other Formats
Station Details ID: 020062 Name: YUNTA AIRSTRIP Lat: -32.57 Lon: 139.56 Height: 300.0 m
Data from the previous 72 hours. | See also: Recent months at Yunta
Date/Time
CDT
Temp
°C
App
Temp
°C
Dew
Point
°C
Rel
Hum
%
Delta-T
°C
Wind Press
QNH
hPa
Press
MSL
hPa
Rain since
9am
mm
Dir  Spd
km/h
Gust
km/h
Spd
kts
Gust
kts
24/08:30pm 36.7 31.7 3.8 13 17.7 NE 19 26 10 14 1003.4 1001.7 0.0
24/08:00pm 37.4 32.4 4.4 13 17.9 NNE 20 28 11 15 1003.2 1001.5 0.0
24/07:30pm 37.7 32.7 4.6 13 18.1 NE 20 32 11 17 1003.1 1001.4 0.0
24/07:00pm 38.3 33.4 5.0 13 18.3 NNE 20 30 11 16 1002.9 1001.2 0.0
24/06:30pm 38.6 33.0 5.3 13 18.5 NNE 24 35 13 19 1002.9 1001.2 0.0
24/06:00pm 39.8 34.1 5.1 12 19.4 N 24 37 13 20 1002.9 1001.2 0.0
24/05:30pm 39.4 33.7 4.7 12 19.2 N 24 35 13 19 1003.2 1001.5 0.0
24/05:00pm 38.9 33.7 5.5 13 18.6 N 22 41 12 22 1003.6 1001.9 0.0
24/04:31pm 38.5 32.1 5.2 13 18.4 N 28 48 15 26 1003.9 1002.2 0.0
24/04:30pm 38.6 32.6 5.3 13 18.5 N 26 48 14 26 1003.9 1002.2 0.0
24/04:00pm 39.0 34.0 4.4 12 19.0 N 20 33 11 18 1004.3 1002.6 0.0
24/03:30pm - - - - - N 24 37 13 20 1004.6 1002.9 0.0
24/03:11pm 39.5 33.0 4.8 12 19.2 NNE 28 50 15 27 1004.7 1003.0 0.0
24/03:00pm 39.9 33.2 3.9 11 19.7 N 28 43 15 23 1005.0 1003.3 0.0
24/02:30pm 39.4 32.9 4.7 12 19.2 N 28 39 15 21 1005.4 1003.7 0.0
24/02:21pm 39.6 33.1 4.9 12 19.2 N 28 80 15 43 1005.5 1003.8 0.0
24/02:19pm 39.8 33.8 5.1 12 19.3 N 26 80 14 43 1005.2 1003.5 0.0
24/02:00pm 39.6 32.9 3.7 11 19.5 NNE 28 48 15 26 1005.7 1004.0 0.0
24/01:30pm 40.1 33.0 5.3 12 19.5 N 32 52 17 28 1006.3 1004.6 0.0
24/01:20pm 39.8 33.1 3.8 11 19.6 N 28 50 15 27 1006.2 1004.5 0.0
24/01:00pm 40.0 32.8 5.2 12 19.4 N 32 43 17 23 1006.6 1004.9 0.0
24/12:30pm 38.7 31.6 5.4 13 18.5 N 32 44 17 24 1007.1 1005.4 0.0
24/12:00pm 39.1 32.2 4.5 12 19.0 N 30 39 16 21 1007.4 1005.7 0.0
24/11:30am 37.5 30.0 4.4 13 18.0 N 33 46 18 25 1007.8 1006.1 0.0
24/11:00am 37.7 30.2 4.6 13 18.1 N 33 46 18 25 1008.0 1006.4 0.0
24/10:30am 36.6 28.6 3.7 13 17.7 N 35 46 19 25 1008.2 1006.6 0.0
24/10:00am 35.8 27.7 3.1 13 17.3 N 35 48 19 26 1008.3 1006.7 0.0
24/09:30am 34.9 27.2 3.5 14 16.6 N 33 46 18 25 1008.5 1006.8 0.0
24/09:00am 34.3 27.1 3.0 14 16.4 NNE 30 44 16 24 1008.5 1006.8 0.0
24/08:30am 33.8 28.4 2.6 14 16.2 N 20 30 11 16 1008.5 1006.8 0.0
24/08:18am 31.4 28.8 3.4 17 14.5 NNW 6 19 3 10 1008.5 1006.8 0.0
24/08:00am 25.6 23.0 -4.8 13 13.1 CALM 0 0 0 0 1008.5 1006.8 0.0
24/07:30am 22.2 19.6 -4.8 16 11.3 CALM 0 0 0 0 1008.1 1006.5 0.0
24/07:00am 21.0 18.2 -6.6 15 11.0 CALM 0 0 0 0 1008.0 1006.4 0.0
24/06:30am 21.4 17.5 -6.3 15 11.1 NNW 6 7 3 4 1007.7 1006.0 0.0
24/06:00am 21.8 17.3 -6.8 14 11.4 NNW 9 11 5 6 1007.5 1005.8 0.0
24/05:30am 21.1 17.2 -6.5 15 11.0 NNW 6 7 3 4 1007.2 1005.5 0.0
24/05:00am 21.3 16.9 -5.5 16 10.9 NNW 9 13 5 7 1007.0 1005.3 0.0
24/04:30am 21.2 17.6 -7.3 14 11.2 NNW 4 7 2 4 1006.9 1005.2 0.0
24/04:00am 20.9 18.1 -6.7 15 10.9 CALM 0 0 0 0 1007.0 1005.3 0.0
24/03:30am 22.0 19.1 -7.6 13 11.7 CALM 0 0 0 0 1007.1 1005.4 0.0
24/03:00am 22.2 18.6 -7.5 13 11.8 NNW 4 4 2 2 1007.3 1005.6 0.0
24/02:30am 22.7 18.8 -6.1 14 11.8 NNW 6 11 3 6 1007.5 1005.8 0.0
24/02:00am 22.4 19.6 -7.3 13 11.8 CALM 0 0 0 0 1007.5 1005.8 0.0
24/01:30am 23.4 19.8 -7.6 12 12.4 NNW 4 4 2 2 1007.7 1006.0 0.0
24/01:00am 24.0 20.8 -7.1 12 12.6 NNW 2 6 1 3 1008.0 1006.4 0.0
24/12:30am 24.8 21.2 -7.6 11 13.1 NNW 4 11 2 6 1008.1 1006.5 0.0
24/12:00am 26.4 22.9 -6.4 11 13.8 NNW 4 6 2 3 1008.1 1006.5 0.0
 
Date/Time
CDT
Temp
°C
App
Temp
°C
Dew
Point
°C
Rel
Hum
%
Delta-T
°C
Wind Press
QNH
hPa
Press
MSL
hPa
Rain since
9am
mm
Dir  Spd
km/h
Gust
km/h
Spd
kts
Gust
kts
23/11:30pm 28.6 25.9 -6.0 10 15.0 CALM 0 4 0 2 1008.2 1006.6 0.0
23/11:00pm 29.4 25.4 -5.4 10 15.3 NNW 7 7 4 4 1008.2 1006.6 0.0
23/10:30pm 29.6 25.6 -5.2 10 15.4 NNW 7 9 4 5 1008.2 1006.6 0.0
23/10:00pm 29.6 26.8 -6.6 9 15.6 CALM 0 6 0 3 1008.0 1006.4 0.0
23/09:30pm 31.2 28.0 -6.9 8 16.6 NNW 2 4 1 2 1007.8 1006.1 0.0
23/09:00pm 34.0 30.6 -4.9 8 17.9 NNW 4 9 2 5 1007.5 1005.8 0.0
23/08:30pm 35.0 31.2 -5.9 7 18.7 NNW 6 7 3 4 1007.2 1005.5 0.0
23/08:00pm 37.1 33.2 -4.4 7 19.6 NNW 7 9 4 5 1006.9 1005.2 0.0
23/07:30pm 38.9 34.6 -5.1 6 20.9 NNW 9 13 5 7 1006.7 1005.0 0.0
23/07:00pm 38.9 34.6 -5.1 6 20.8 NNW 9 13 5 7 1006.5 1004.8 0.0
23/06:30pm 39.4 35.7 -4.8 6 21.2 NNW 6 13 3 7 1006.4 1004.7 0.0
23/06:00pm 39.6 35.3 -4.6 6 21.3 NNW 9 17 5 9 1006.3 1004.6 0.0
23/05:30pm 39.5 35.6 -4.7 6 21.2 NNW 7 15 4 8 1006.3 1004.6 0.0
23/05:00pm 39.5 35.6 -4.7 6 21.2 NNW 7 15 4 8 1006.6 1004.9 0.0
23/04:30pm 39.5 35.6 -4.7 6 21.2 N 7 15 4 8 1006.7 1005.0 0.0
23/04:00pm 39.5 34.1 -4.7 6 21.2 N 15 24 8 13 1007.1 1005.4 0.0
23/03:30pm 38.8 34.5 -5.2 6 20.9 NNW 9 17 5 9 1007.3 1005.6 0.0
23/03:00pm 38.8 34.5 -5.2 6 20.8 N 9 17 5 9 1007.8 1006.1 0.0
23/02:30pm 38.1 33.7 -5.7 6 20.5 NNW 9 22 5 12 1008.1 1006.5 0.0
23/02:00pm 38.3 32.8 -5.5 6 20.5 N 15 32 8 17 1008.5 1006.8 0.0
23/01:30pm 37.9 32.6 -3.8 7 20.1 NNE 15 26 8 14 1008.8 1007.1 0.0
23/01:00pm 36.8 31.0 -4.6 7 19.5 NNE 17 26 9 14 1009.4 1007.7 0.0
23/12:30pm 36.4 30.6 -4.9 7 19.3 N 17 28 9 15 1009.9 1008.2 0.0
23/12:00pm 35.8 30.1 -3.5 8 18.7 N 17 32 9 17 1010.3 1008.6 0.0
23/11:30am 34.1 30.9 -0.5 11 17.1 SSE 6 13 3 7 1010.8 1009.1 0.0
23/11:00am 31.2 27.7 -1.5 12 15.6 SSE 7 15 4 8 1011.0 1009.4 0.0
23/10:30am 29.0 25.8 0.7 16 13.8 SSE 7 11 4 6 1011.3 1009.7 0.0
23/10:00am 27.0 23.8 0.7 18 12.6 SSE 7 11 4 6 1011.5 1009.9 0.0
23/09:30am 25.3 22.1 0.8 20 11.6 SSE 7 11 4 6 1011.7 1010.1 0.0
23/09:00am 23.7 20.5 0.7 22 10.8 SSE 7 15 4 8 1012.0 1010.3 0.0
23/08:30am 22.1 19.1 0.6 24 9.9 SSE 6 7 3 4 1012.1 1010.4 0.0
23/08:00am 20.0 16.8 0.5 27 8.8 SSE 7 7 4 4 1012.2 1010.5 0.0
23/07:30am 17.9 14.8 0.1 30 7.9 SSE 6 7 3 4 1012.1 1010.4 0.0
23/07:00am 16.1 12.2 -1.5 30 7.4 SSE 9 9 5 5 1011.6 1010.0 0.0
23/06:30am 15.2 11.7 -1.4 32 6.9 SSE 7 9 4 5 1011.3 1009.7 0.0
23/06:00am 15.4 12.4 -1.6 31 7.1 SSE 4 4 2 2 1010.9 1009.3 0.0
23/05:30am 15.8 12.8 -1.7 30 7.3 SSE 4 6 2 3 1010.9 1009.3 0.0
23/05:00am 16.6 13.5 -0.1 32 7.3 SSE 6 6 3 3 1010.6 1008.9 0.0
23/04:30am 17.2 13.4 -1.0 29 7.8 SSE 9 9 5 5 1010.5 1008.8 0.0
23/04:00am 18.0 14.3 -2.8 24 8.7 SSE 7 7 4 4 1010.4 1008.7 0.0
23/03:30am 18.2 14.6 -3.8 22 9.0 SSE 6 6 3 3 1010.3 1008.6 0.0
23/03:00am 18.8 14.9 -4.6 20 9.5 SSE 7 9 4 5 1010.3 1008.6 0.0
23/02:30am 19.0 15.4 -3.8 21 9.4 SSE 6 6 3 3 1010.6 1008.9 0.0
23/02:00am 20.9 17.2 -4.3 18 10.5 SSE 6 9 3 5 1010.6 1008.9 0.0
23/01:30am 22.9 18.5 -6.0 14 11.9 SSE 9 11 5 6 1010.7 1009.0 0.0
23/01:00am 23.6 19.1 -6.4 13 12.3 SSE 9 11 5 6 1010.7 1009.0 0.0
23/12:30am 26.9 21.8 -4.9 12 13.8 SSE 13 19 7 10 1010.6 1008.9 0.0
23/12:00am 27.6 22.5 -5.5 11 14.3 SSE 13 20 7 11 1010.6 1008.9 0.0
 
Date/Time
CDT
Temp
°C
App
Temp
°C
Dew
Point
°C
Rel
Hum
%
Delta-T
°C
Wind Press
QNH
hPa
Press
MSL
hPa
Rain since
9am
mm
Dir  Spd
km/h
Gust
km/h
Spd
kts
Gust
kts
22/11:30pm 28.5 22.1 -4.8 11 14.7 SSE 20 30 11 16 1010.1 1008.4 0.0
22/11:00pm 28.9 22.5 -4.5 11 14.8 S 20 30 11 16 1010.0 1008.3 0.0
22/10:30pm 29.6 24.2 -8.1 8 15.8 SSE 13 22 7 12 1009.7 1008.0 0.0
22/10:00pm 29.6 25.0 -8.1 8 15.8 SE 9 15 5 8 1009.4 1007.7 0.0
22/09:30pm 31.2 26.2 -8.6 7 16.8 SE 11 17 6 9 1009.1 1007.4 0.0
22/09:00pm 31.9 26.4 -10.1 6 17.4 SE 13 17 7 9 1008.7 1007.0 0.0
22/08:30pm 33.0 27.4 -11.6 5 18.2 SE 13 20 7 11 1008.5 1006.8 0.0
22/08:00pm 34.5 28.6 -10.6 5 18.9 SE 15 24 8 13 1008.2 1006.6 0.0
22/07:30pm 35.5 28.8 -9.9 5 19.5 SSE 19 26 10 14 1007.8 1006.1 0.0
22/07:00pm 36.2 30.7 -9.4 5 19.8 S 13 24 7 13 1007.6 1005.9 0.0
22/06:30pm 36.6 31.6 -4.7 7 19.4 SSW 13 24 7 13 1007.4 1005.7 0.0
22/06:00pm 37.2 33.3 -6.3 6 20.0 WSW 6 11 3 6 1007.5 1005.8 0.0
22/05:30pm 36.9 32.3 -4.5 7 19.6 SSW 11 20 6 11 1007.6 1005.9 0.0
22/05:00pm 36.9 31.9 -4.5 7 19.5 S 13 20 7 11 1007.8 1006.1 0.0
22/04:30pm 36.7 33.2 -2.9 8 19.2 SW 6 11 3 6 1007.9 1006.3 0.0
22/04:00pm 36.5 32.8 -3.0 8 19.0 S 7 15 4 8 1008.2 1006.6 0.0
22/03:30pm 36.0 32.4 -1.8 9 18.5 S 7 15 4 8 1008.6 1006.9 0.0
22/03:00pm 36.2 32.3 -1.7 9 18.6 S 9 17 5 9 1009.0 1007.3 0.0
22/02:30pm 35.2 31.2 -2.4 9 18.2 S 9 17 5 9 1009.3 1007.6 0.0
22/02:00pm 35.0 30.6 -2.6 9 18.0 S 11 19 6 10 1009.5 1007.8 0.0
22/01:30pm 35.0 31.3 -2.6 9 18.1 SSE 7 15 4 8 1009.9 1008.2 0.0
22/01:00pm 33.7 30.1 -2.1 10 17.2 SSE 7 15 4 8 1010.2 1008.5 0.0
22/12:30pm 33.0 29.9 -2.6 10 16.9 SSE 4 15 2 8 1010.7 1009.0 0.0
22/12:00pm 32.1 28.5 -2.0 11 16.2 SSE 7 17 4 9 1010.9 1009.3 0.0
22/11:30am 31.4 27.4 -2.6 11 15.9 SSE 9 17 5 9 1011.1 1009.5 0.0
22/11:00am 29.9 25.9 -2.6 12 15.0 SSE 9 17 5 9 1011.4 1009.8 0.0
22/10:30am 28.3 23.9 -2.7 13 14.2 SSE 11 15 6 8 1011.6 1010.0 0.0
22/10:00am 27.1 22.3 -2.7 14 13.5 S 13 19 7 10 1011.8 1010.2 0.0
22/09:30am 25.7 21.8 -1.2 17 12.4 S 9 15 5 8 1011.7 1010.1 0.0
22/09:00am 23.6 19.9 0.0 21 10.9 S 9 15 5 8 1011.7 1010.1 0.0
22/08:30am 22.2 18.9 0.1 23 10.1 S 7 11 4 6 1011.8 1010.2 0.0
22/08:00am 20.4 18.5 0.8 27 9.0 CALM 0 0 0 0 1011.6 1010.0 0.0
22/07:30am 18.7 16.4 0.3 29 8.2 S 2 4 1 2 1011.6 1010.0 0.0
22/07:00am 16.3 13.4 -0.8 31 7.3 S 4 4 2 2 1011.1 1009.5 0.0
22/06:30am 15.5 12.5 -1.5 31 7.1 S 4 4 2 2 1010.9 1009.3 0.0
22/06:00am 15.6 12.1 -1.0 32 7.0 S 7 9 4 5 1010.7 1009.0 0.0
22/05:30am 16.1 12.6 -1.0 31 7.3 S 7 9 4 5 1010.5 1008.8 0.0
22/05:00am 16.8 13.4 -0.9 30 7.6 S 7 9 4 5 1010.3 1008.6 0.0
22/04:30am 17.6 13.3 -1.6 27 8.2 S 11 13 6 7 1010.1 1008.4 0.0
22/04:00am 18.0 14.4 -1.8 26 8.4 S 7 9 4 5 1010.1 1008.4 0.0
22/03:30am 18.6 14.7 -1.8 25 8.7 S 9 9 5 5 1010.4 1008.7 0.0
22/03:00am 19.3 15.8 -1.7 24 9.1 S 7 9 4 5 1010.3 1008.6 0.0
22/02:30am 21.3 18.5 -0.6 23 9.8 S 4 6 2 3 1010.5 1008.8 0.0
22/02:00am 23.2 20.0 -0.3 21 10.8 S 6 7 3 4 1010.8 1009.1 0.0
22/01:30am 23.1 20.6 -1.1 20 10.9 S 2 6 1 3 1010.9 1009.3 0.0
22/01:00am 25.6 21.1 -0.5 18 12.1 S 13 19 7 10 1010.7 1009.0 0.0
22/12:30am 26.2 22.0 -0.8 17 12.6 S 11 15 6 8 1010.6 1008.9 0.0
22/12:00am 26.4 21.9 -3.2 14 13.2 SSW 11 17 6 9 1010.5 1008.8 0.0
 
Date/Time
CDT
Temp
°C
App
Temp
°C
Dew
Point
°C
Rel
Hum
%
Delta-T
°C
Wind Press
QNH
hPa
Press
MSL
hPa
Rain since
9am
mm
Dir  Spd
km/h
Gust
km/h
Spd
kts
Gust
kts
21/11:30pm 26.0 22.3 -4.5 13 13.2 SSW 6 11 3 6 1010.2 1008.5 0.0
21/11:00pm 24.9 21.2 -4.4 14 12.6 SW 6 20 3 11 1010.0 1008.3 0.0
21/10:30pm 25.3 21.8 -6.1 12 13.2 SW 4 6 2 3 1009.8 1008.1 0.0
21/10:00pm 27.1 23.8 -4.7 12 13.9 SW 4 6 2 3 1009.5 1007.8 0.0
21/09:30pm 28.4 24.7 -4.9 11 14.6 SW 6 6 3 3 1009.1 1007.4 0.0
21/09:00pm 30.6 26.7 -4.4 10 15.8 SW 7 9 4 5 1008.8 1007.1 0.0

Other formats

Comma delimited format used in spreadsheet applications
http://www.bom.gov.au/fwo/IDS60801/IDS60801.94684.axf

JavaScript Object Notation format (JSON) in row-major order
http://www.bom.gov.au/fwo/IDS60801/IDS60801.94684.json

Data quality

Most of these data are generated automatically and are frequently updated. Quality checks on data are not normally performed. It is possible for incorrect values to appear. Refer to information at About Latest Weather Observations and please check the disclaimer before using these data.